sensor_id;sensor_type;location;lat;lon;timestamp;P1;durP1;ratioP1;P2;durP2;ratioP2
5819;SDS011;2936;47.348;9.640;2022-07-29T00:02:19;2.27;;;2.17;;
5819;SDS011;2936;47.348;9.640;2022-07-29T00:04:46;4.80;;;1.80;;
5819;SDS011;2936;47.348;9.640;2022-07-29T00:07:14;1.60;;;1.50;;
5819;SDS011;2936;47.348;9.640;2022-07-29T00:09:41;2.07;;;1.97;;
5819;SDS011;2936;47.348;9.640;2022-07-29T00:12:08;3.27;;;1.50;;
5819;SDS011;2936;47.348;9.640;2022-07-29T00:14:36;2.13;;;1.80;;
5819;SDS011;2936;47.348;9.640;2022-07-29T00:17:05;1.90;;;1.80;;
5819;SDS011;2936;47.348;9.640;2022-07-29T00:19:32;2.00;;;1.80;;
5819;SDS011;2936;47.348;9.640;2022-07-29T00:22:00;1.90;;;1.80;;
5819;SDS011;2936;47.348;9.640;2022-07-29T00:24:27;2.00;;;1.60;;
5819;SDS011;2936;47.348;9.640;2022-07-29T00:26:54;1.83;;;1.73;;
5819;SDS011;2936;47.348;9.640;2022-07-29T00:29:22;1.80;;;1.67;;
5819;SDS011;2936;47.348;9.640;2022-07-29T00:31:49;1.80;;;1.70;;
5819;SDS011;2936;47.348;9.640;2022-07-29T00:34:18;1.70;;;1.70;;
5819;SDS011;2936;47.348;9.640;2022-07-29T00:37:03;2.10;;;2.00;;
5819;SDS011;2936;47.348;9.640;2022-07-29T00:39:30;1.80;;;1.70;;
5819;SDS011;2936;47.348;9.640;2022-07-29T00:41:57;1.87;;;1.77;;
5819;SDS011;2936;47.348;9.640;2022-07-29T00:44:25;1.90;;;1.80;;
5819;SDS011;2936;47.348;9.640;2022-07-29T00:46:52;2.33;;;2.23;;
5819;SDS011;2936;47.348;9.640;2022-07-29T00:49:21;2.10;;;1.90;;
5819;SDS011;2936;47.348;9.640;2022-07-29T00:51:48;2.10;;;1.90;;
5819;SDS011;2936;47.348;9.640;2022-07-29T00:54:16;1.70;;;1.60;;
5819;SDS011;2936;47.348;9.640;2022-07-29T00:56:44;2.23;;;2.07;;
5819;SDS011;2936;47.348;9.640;2022-07-29T00:59:11;2.03;;;1.93;;
5819;SDS011;2936;47.348;9.640;2022-07-29T01:01:38;2.30;;;2.10;;
5819;SDS011;2936;47.348;9.640;2022-07-29T01:04:06;3.63;;;2.30;;
5819;SDS011;2936;47.348;9.640;2022-07-29T01:06:35;1.90;;;1.80;;
5819;SDS011;2936;47.348;9.640;2022-07-29T01:09:02;2.57;;;1.77;;
5819;SDS011;2936;47.348;9.640;2022-07-29T01:11:30;2.93;;;1.93;;
5819;SDS011;2936;47.348;9.640;2022-07-29T01:13:57;1.63;;;1.53;;
5819;SDS011;2936;47.348;9.640;2022-07-29T01:16:25;1.87;;;1.77;;
5819;SDS011;2936;47.348;9.640;2022-07-29T01:18:56;1.77;;;1.67;;
5819;SDS011;2936;47.348;9.640;2022-07-29T01:21:31;2.30;;;1.90;;
5819;SDS011;2936;47.348;9.640;2022-07-29T01:24:18;3.03;;;2.20;;
5819;SDS011;2936;47.348;9.640;2022-07-29T01:26:48;2.00;;;1.90;;
5819;SDS011;2936;47.348;9.640;2022-07-29T01:29:18;2.13;;;1.93;;
5819;SDS011;2936;47.348;9.640;2022-07-29T01:31:51;2.33;;;2.23;;
5819;SDS011;2936;47.348;9.640;2022-07-29T01:34:21;2.10;;;1.90;;
5819;SDS011;2936;47.348;9.640;2022-07-29T01:36:50;2.10;;;2.00;;
5819;SDS011;2936;47.348;9.640;2022-07-29T01:39:19;1.93;;;1.83;;
5819;SDS011;2936;47.348;9.640;2022-07-29T01:41:49;2.10;;;2.00;;
5819;SDS011;2936;47.348;9.640;2022-07-29T01:44:20;2.03;;;1.93;;
5819;SDS011;2936;47.348;9.640;2022-07-29T01:46:51;2.20;;;2.10;;
5819;SDS011;2936;47.348;9.640;2022-07-29T01:49:21;2.27;;;2.17;;
5819;SDS011;2936;47.348;9.640;2022-07-29T01:51:49;2.13;;;2.03;;
5819;SDS011;2936;47.348;9.640;2022-07-29T01:54:18;2.40;;;2.30;;
5819;SDS011;2936;47.348;9.640;2022-07-29T01:56:47;2.47;;;2.27;;
5819;SDS011;2936;47.348;9.640;2022-07-29T01:59:16;2.33;;;2.23;;
5819;SDS011;2936;47.348;9.640;2022-07-29T02:01:46;2.40;;;2.20;;
5819;SDS011;2936;47.348;9.640;2022-07-29T02:04:15;2.23;;;2.13;;
5819;SDS011;2936;47.348;9.640;2022-07-29T02:06:44;2.50;;;2.10;;
5819;SDS011;2936;47.348;9.640;2022-07-29T02:09:12;5.43;;;2.40;;
5819;SDS011;2936;47.348;9.640;2022-07-29T02:11:40;2.40;;;2.30;;
5819;SDS011;2936;47.348;9.640;2022-07-29T02:14:13;2.60;;;2.50;;
5819;SDS011;2936;47.348;9.640;2022-07-29T02:16:41;2.67;;;2.57;;
5819;SDS011;2936;47.348;9.640;2022-07-29T02:19:11;3.97;;;2.90;;
5819;SDS011;2936;47.348;9.640;2022-07-29T02:21:39;2.37;;;2.27;;
5819;SDS011;2936;47.348;9.640;2022-07-29T02:24:07;2.33;;;2.10;;
5819;SDS011;2936;47.348;9.640;2022-07-29T02:26:35;2.40;;;2.30;;
5819;SDS011;2936;47.348;9.640;2022-07-29T02:29:03;2.60;;;2.40;;
5819;SDS011;2936;47.348;9.640;2022-07-29T02:31:32;2.23;;;2.13;;
5819;SDS011;2936;47.348;9.640;2022-07-29T02:34:00;4.80;;;2.33;;
5819;SDS011;2936;47.348;9.640;2022-07-29T02:36:30;2.27;;;2.17;;
5819;SDS011;2936;47.348;9.640;2022-07-29T02:38:58;3.13;;;2.33;;
5819;SDS011;2936;47.348;9.640;2022-07-29T02:41:27;6.77;;;2.17;;
5819;SDS011;2936;47.348;9.640;2022-07-29T02:43:55;2.50;;;2.40;;
5819;SDS011;2936;47.348;9.640;2022-07-29T02:46:25;2.70;;;2.50;;
5819;SDS011;2936;47.348;9.640;2022-07-29T02:48:55;2.33;;;2.23;;
5819;SDS011;2936;47.348;9.640;2022-07-29T02:51:27;4.20;;;2.10;;
5819;SDS011;2936;47.348;9.640;2022-07-29T02:53:56;5.63;;;2.30;;
5819;SDS011;2936;47.348;9.640;2022-07-29T02:56:25;2.27;;;2.13;;
5819;SDS011;2936;47.348;9.640;2022-07-29T02:58:54;2.20;;;2.10;;
5819;SDS011;2936;47.348;9.640;2022-07-29T03:01:23;2.13;;;2.00;;
5819;SDS011;2936;47.348;9.640;2022-07-29T03:03:53;2.43;;;2.23;;
5819;SDS011;2936;47.348;9.640;2022-07-29T03:06:21;2.27;;;2.17;;
5819;SDS011;2936;47.348;9.640;2022-07-29T03:08:49;2.27;;;2.13;;
5819;SDS011;2936;47.348;9.640;2022-07-29T03:11:19;2.00;;;1.90;;
5819;SDS011;2936;47.348;9.640;2022-07-29T03:13:46;2.27;;;2.17;;
5819;SDS011;2936;47.348;9.640;2022-07-29T03:16:14;1.80;;;1.70;;
5819;SDS011;2936;47.348;9.640;2022-07-29T03:18:41;2.23;;;2.13;;
5819;SDS011;2936;47.348;9.640;2022-07-29T03:21:09;2.70;;;2.60;;
5819;SDS011;2936;47.348;9.640;2022-07-29T03:23:36;2.13;;;2.03;;
5819;SDS011;2936;47.348;9.640;2022-07-29T03:26:04;3.10;;;2.43;;
5819;SDS011;2936;47.348;9.640;2022-07-29T03:28:32;2.20;;;2.10;;
5819;SDS011;2936;47.348;9.640;2022-07-29T03:31:00;2.23;;;2.13;;
5819;SDS011;2936;47.348;9.640;2022-07-29T03:33:27;2.00;;;1.90;;
5819;SDS011;2936;47.348;9.640;2022-07-29T03:35:55;10.43;;;2.47;;
5819;SDS011;2936;47.348;9.640;2022-07-29T03:38:23;2.77;;;2.67;;
5819;SDS011;2936;47.348;9.640;2022-07-29T03:40:53;3.53;;;2.27;;
5819;SDS011;2936;47.348;9.640;2022-07-29T03:43:21;2.20;;;2.10;;
5819;SDS011;2936;47.348;9.640;2022-07-29T03:45:52;2.50;;;2.40;;
5819;SDS011;2936;47.348;9.640;2022-07-29T03:48:21;2.60;;;2.40;;
5819;SDS011;2936;47.348;9.640;2022-07-29T03:50:51;2.60;;;2.40;;
5819;SDS011;2936;47.348;9.640;2022-07-29T03:53:18;2.40;;;2.20;;
5819;SDS011;2936;47.348;9.640;2022-07-29T03:55:47;2.93;;;2.53;;
5819;SDS011;2936;47.348;9.640;2022-07-29T03:58:15;2.40;;;2.30;;
5819;SDS011;2936;47.348;9.640;2022-07-29T04:00:43;2.73;;;2.63;;
5819;SDS011;2936;47.348;9.640;2022-07-29T04:03:12;6.67;;;2.30;;
5819;SDS011;2936;47.348;9.640;2022-07-29T04:05:39;2.73;;;2.60;;
5819;SDS011;2936;47.348;9.640;2022-07-29T04:08:07;2.83;;;2.73;;
5819;SDS011;2936;47.348;9.640;2022-07-29T04:10:34;2.40;;;2.30;;
5819;SDS011;2936;47.348;9.640;2022-07-29T04:13:02;2.60;;;2.50;;
5819;SDS011;2936;47.348;9.640;2022-07-29T04:15:29;2.70;;;2.50;;
5819;SDS011;2936;47.348;9.640;2022-07-29T04:17:57;2.50;;;2.30;;
5819;SDS011;2936;47.348;9.640;2022-07-29T04:20:25;2.10;;;2.00;;
5819;SDS011;2936;47.348;9.640;2022-07-29T04:22:53;2.47;;;2.30;;
5819;SDS011;2936;47.348;9.640;2022-07-29T04:25:20;2.67;;;2.57;;
5819;SDS011;2936;47.348;9.640;2022-07-29T04:27:48;2.47;;;2.37;;
5819;SDS011;2936;47.348;9.640;2022-07-29T04:30:28;2.60;;;2.43;;
5819;SDS011;2936;47.348;9.640;2022-07-29T04:32:55;4.73;;;2.17;;
5819;SDS011;2936;47.348;9.640;2022-07-29T04:35:23;2.67;;;2.50;;
5819;SDS011;2936;47.348;9.640;2022-07-29T04:37:51;2.33;;;2.23;;
5819;SDS011;2936;47.348;9.640;2022-07-29T04:40:19;2.10;;;1.97;;
5819;SDS011;2936;47.348;9.640;2022-07-29T04:42:46;2.47;;;2.37;;
5819;SDS011;2936;47.348;9.640;2022-07-29T04:45:14;2.30;;;2.20;;
5819;SDS011;2936;47.348;9.640;2022-07-29T04:47:41;2.50;;;2.40;;
5819;SDS011;2936;47.348;9.640;2022-07-29T04:50:09;2.70;;;2.60;;
5819;SDS011;2936;47.348;9.640;2022-07-29T04:52:36;2.40;;;2.30;;
5819;SDS011;2936;47.348;9.640;2022-07-29T04:55:06;2.40;;;2.30;;
5819;SDS011;2936;47.348;9.640;2022-07-29T04:57:33;2.67;;;2.37;;
5819;SDS011;2936;47.348;9.640;2022-07-29T05:00:00;5.43;;;2.40;;
5819;SDS011;2936;47.348;9.640;2022-07-29T05:02:28;2.33;;;2.23;;
5819;SDS011;2936;47.348;9.640;2022-07-29T05:04:55;1.90;;;1.80;;
5819;SDS011;2936;47.348;9.640;2022-07-29T05:07:23;2.37;;;2.27;;
5819;SDS011;2936;47.348;9.640;2022-07-29T05:09:50;2.73;;;2.53;;
5819;SDS011;2936;47.348;9.640;2022-07-29T05:12:19;2.70;;;2.60;;
5819;SDS011;2936;47.348;9.640;2022-07-29T05:14:46;2.23;;;1.90;;
5819;SDS011;2936;47.348;9.640;2022-07-29T05:17:14;6.93;;;2.33;;
5819;SDS011;2936;47.348;9.640;2022-07-29T05:19:41;3.30;;;2.80;;
5819;SDS011;2936;47.348;9.640;2022-07-29T05:22:09;3.17;;;2.90;;
5819;SDS011;2936;47.348;9.640;2022-07-29T05:24:36;2.40;;;2.30;;
5819;SDS011;2936;47.348;9.640;2022-07-29T05:27:03;2.33;;;2.23;;
5819;SDS011;2936;47.348;9.640;2022-07-29T05:29:32;2.97;;;2.30;;
5819;SDS011;2936;47.348;9.640;2022-07-29T05:32:00;2.10;;;2.00;;
5819;SDS011;2936;47.348;9.640;2022-07-29T05:34:27;3.10;;;1.87;;
5819;SDS011;2936;47.348;9.640;2022-07-29T05:36:55;2.10;;;2.00;;
5819;SDS011;2936;47.348;9.640;2022-07-29T05:39:22;2.20;;;2.10;;
5819;SDS011;2936;47.348;9.640;2022-07-29T05:41:50;2.23;;;2.10;;
5819;SDS011;2936;47.348;9.640;2022-07-29T05:44:17;3.27;;;1.90;;
5819;SDS011;2936;47.348;9.640;2022-07-29T05:46:46;3.33;;;2.30;;
5819;SDS011;2936;47.348;9.640;2022-07-29T05:49:13;2.27;;;2.03;;
5819;SDS011;2936;47.348;9.640;2022-07-29T05:51:41;2.40;;;2.20;;
5819;SDS011;2936;47.348;9.640;2022-07-29T05:54:08;2.00;;;1.90;;
5819;SDS011;2936;47.348;9.640;2022-07-29T05:56:36;2.20;;;2.10;;
5819;SDS011;2936;47.348;9.640;2022-07-29T05:59:03;1.90;;;1.80;;
5819;SDS011;2936;47.348;9.640;2022-07-29T06:01:31;2.77;;;2.17;;
5819;SDS011;2936;47.348;9.640;2022-07-29T06:04:00;2.60;;;2.40;;
5819;SDS011;2936;47.348;9.640;2022-07-29T06:06:27;2.20;;;2.10;;
5819;SDS011;2936;47.348;9.640;2022-07-29T06:08:54;3.20;;;2.33;;
5819;SDS011;2936;47.348;9.640;2022-07-29T06:11:22;1.93;;;1.83;;
5819;SDS011;2936;47.348;9.640;2022-07-29T06:13:49;2.27;;;2.07;;
5819;SDS011;2936;47.348;9.640;2022-07-29T06:16:16;2.80;;;2.50;;
5819;SDS011;2936;47.348;9.640;2022-07-29T06:18:44;2.30;;;2.20;;
5819;SDS011;2936;47.348;9.640;2022-07-29T06:21:13;3.20;;;2.70;;
5819;SDS011;2936;47.348;9.640;2022-07-29T06:23:40;2.47;;;2.23;;
5819;SDS011;2936;47.348;9.640;2022-07-29T06:26:07;2.30;;;2.10;;
5819;SDS011;2936;47.348;9.640;2022-07-29T06:28:35;9.33;;;1.90;;
5819;SDS011;2936;47.348;9.640;2022-07-29T06:31:03;3.57;;;2.17;;
5819;SDS011;2936;47.348;9.640;2022-07-29T06:33:31;2.50;;;2.30;;
5819;SDS011;2936;47.348;9.640;2022-07-29T06:35:59;2.50;;;2.40;;
5819;SDS011;2936;47.348;9.640;2022-07-29T06:38:28;2.43;;;2.23;;
5819;SDS011;2936;47.348;9.640;2022-07-29T06:40:55;7.07;;;2.40;;
5819;SDS011;2936;47.348;9.640;2022-07-29T06:43:30;2.60;;;2.40;;
5819;SDS011;2936;47.348;9.640;2022-07-29T06:46:01;2.33;;;2.23;;
5819;SDS011;2936;47.348;9.640;2022-07-29T06:48:29;2.20;;;2.10;;
5819;SDS011;2936;47.348;9.640;2022-07-29T06:50:57;2.27;;;2.07;;
5819;SDS011;2936;47.348;9.640;2022-07-29T06:53:25;8.03;;;3.17;;
5819;SDS011;2936;47.348;9.640;2022-07-29T06:55:56;3.53;;;2.80;;
5819;SDS011;2936;47.348;9.640;2022-07-29T06:58:26;2.50;;;2.30;;
5819;SDS011;2936;47.348;9.640;2022-07-29T07:00:54;4.83;;;2.57;;
5819;SDS011;2936;47.348;9.640;2022-07-29T07:03:22;5.03;;;2.87;;
5819;SDS011;2936;47.348;9.640;2022-07-29T07:05:49;2.97;;;2.57;;
5819;SDS011;2936;47.348;9.640;2022-07-29T07:08:17;2.60;;;2.23;;
5819;SDS011;2936;47.348;9.640;2022-07-29T07:10:47;2.50;;;2.40;;
5819;SDS011;2936;47.348;9.640;2022-07-29T07:13:22;2.60;;;2.40;;
5819;SDS011;2936;47.348;9.640;2022-07-29T07:15:50;2.70;;;2.50;;
5819;SDS011;2936;47.348;9.640;2022-07-29T07:18:18;2.60;;;2.40;;
5819;SDS011;2936;47.348;9.640;2022-07-29T07:20:46;2.93;;;2.37;;
5819;SDS011;2936;47.348;9.640;2022-07-29T07:23:13;2.30;;;2.20;;
5819;SDS011;2936;47.348;9.640;2022-07-29T07:25:41;6.43;;;3.50;;
5819;SDS011;2936;47.348;9.640;2022-07-29T07:28:08;2.53;;;2.33;;
5819;SDS011;2936;47.348;9.640;2022-07-29T07:30:37;2.77;;;2.53;;
5819;SDS011;2936;47.348;9.640;2022-07-29T07:33:06;2.40;;;2.30;;
5819;SDS011;2936;47.348;9.640;2022-07-29T07:35:33;2.37;;;2.27;;
5819;SDS011;2936;47.348;9.640;2022-07-29T07:38:01;2.83;;;2.50;;
5819;SDS011;2936;47.348;9.640;2022-07-29T07:40:28;2.10;;;2.00;;
5819;SDS011;2936;47.348;9.640;2022-07-29T07:42:56;5.93;;;2.60;;
5819;SDS011;2936;47.348;9.640;2022-07-29T07:45:29;13.40;;;3.40;;
5819;SDS011;2936;47.348;9.640;2022-07-29T07:48:02;5.13;;;2.53;;
5819;SDS011;2936;47.348;9.640;2022-07-29T07:50:31;2.53;;;2.43;;
5819;SDS011;2936;47.348;9.640;2022-07-29T07:52:59;2.60;;;2.40;;
5819;SDS011;2936;47.348;9.640;2022-07-29T07:55:27;2.37;;;2.20;;
5819;SDS011;2936;47.348;9.640;2022-07-29T07:57:54;2.90;;;2.60;;
5819;SDS011;2936;47.348;9.640;2022-07-29T08:00:22;4.63;;;2.67;;
5819;SDS011;2936;47.348;9.640;2022-07-29T08:02:50;2.83;;;2.70;;
5819;SDS011;2936;47.348;9.640;2022-07-29T08:05:19;2.53;;;2.30;;
5819;SDS011;2936;47.348;9.640;2022-07-29T08:07:46;2.80;;;2.60;;
5819;SDS011;2936;47.348;9.640;2022-07-29T08:10:14;6.10;;;3.07;;
5819;SDS011;2936;47.348;9.640;2022-07-29T08:13:02;4.40;;;3.10;;
5819;SDS011;2936;47.348;9.640;2022-07-29T08:15:29;5.53;;;2.87;;
5819;SDS011;2936;47.348;9.640;2022-07-29T08:17:57;2.80;;;2.60;;
5819;SDS011;2936;47.348;9.640;2022-07-29T08:20:26;2.70;;;2.00;;
5819;SDS011;2936;47.348;9.640;2022-07-29T08:22:53;2.80;;;2.60;;
5819;SDS011;2936;47.348;9.640;2022-07-29T08:25:22;2.87;;;2.60;;
5819;SDS011;2936;47.348;9.640;2022-07-29T08:27:50;2.97;;;2.77;;
5819;SDS011;2936;47.348;9.640;2022-07-29T08:30:17;2.90;;;2.70;;
5819;SDS011;2936;47.348;9.640;2022-07-29T08:32:44;2.47;;;2.27;;
5819;SDS011;2936;47.348;9.640;2022-07-29T08:35:12;2.27;;;2.17;;
5819;SDS011;2936;47.348;9.640;2022-07-29T08:37:40;3.20;;;2.73;;
5819;SDS011;2936;47.348;9.640;2022-07-29T08:40:08;3.70;;;2.90;;
5819;SDS011;2936;47.348;9.640;2022-07-29T08:42:36;5.60;;;3.20;;
5819;SDS011;2936;47.348;9.640;2022-07-29T08:45:04;3.80;;;3.57;;
5819;SDS011;2936;47.348;9.640;2022-07-29T08:47:33;4.50;;;3.83;;
5819;SDS011;2936;47.348;9.640;2022-07-29T08:50:04;7.30;;;3.80;;
5819;SDS011;2936;47.348;9.640;2022-07-29T08:52:33;9.53;;;3.97;;
5819;SDS011;2936;47.348;9.640;2022-07-29T08:55:04;5.50;;;5.00;;
5819;SDS011;2936;47.348;9.640;2022-07-29T08:57:31;4.10;;;3.03;;
5819;SDS011;2936;47.348;9.640;2022-07-29T09:00:00;8.80;;;3.97;;
5819;SDS011;2936;47.348;9.640;2022-07-29T09:02:28;3.63;;;3.10;;
5819;SDS011;2936;47.348;9.640;2022-07-29T09:04:56;4.30;;;3.17;;
5819;SDS011;2936;47.348;9.640;2022-07-29T09:07:25;8.93;;;3.50;;
5819;SDS011;2936;47.348;9.640;2022-07-29T09:09:52;3.60;;;3.30;;
5819;SDS011;2936;47.348;9.640;2022-07-29T09:12:21;5.10;;;4.13;;
5819;SDS011;2936;47.348;9.640;2022-07-29T09:14:50;14.93;;;3.23;;
5819;SDS011;2936;47.348;9.640;2022-07-29T09:17:17;9.20;;;3.63;;
5819;SDS011;2936;47.348;9.640;2022-07-29T09:19:45;6.80;;;3.13;;
5819;SDS011;2936;47.348;9.640;2022-07-29T09:22:12;4.23;;;3.80;;
5819;SDS011;2936;47.348;9.640;2022-07-29T09:24:55;7.37;;;3.50;;
5819;SDS011;2936;47.348;9.640;2022-07-29T09:27:24;3.07;;;2.87;;
5819;SDS011;2936;47.348;9.640;2022-07-29T09:29:57;4.13;;;3.50;;
5819;SDS011;2936;47.348;9.640;2022-07-29T09:32:25;5.83;;;3.40;;
5819;SDS011;2936;47.348;9.640;2022-07-29T09:37:35;3.50;;;3.30;;
5819;SDS011;2936;47.348;9.640;2022-07-29T09:40:10;5.70;;;3.63;;
5819;SDS011;2936;47.348;9.640;2022-07-29T09:42:39;7.63;;;3.17;;
5819;SDS011;2936;47.348;9.640;2022-07-29T09:45:07;3.50;;;3.30;;
5819;SDS011;2936;47.348;9.640;2022-07-29T09:47:40;3.80;;;3.50;;
5819;SDS011;2936;47.348;9.640;2022-07-29T09:50:09;6.73;;;4.00;;
5819;SDS011;2936;47.348;9.640;2022-07-29T09:52:44;8.53;;;4.07;;
5819;SDS011;2936;47.348;9.640;2022-07-29T09:55:12;6.80;;;4.27;;
5819;SDS011;2936;47.348;9.640;2022-07-29T09:57:41;10.30;;;4.57;;
5819;SDS011;2936;47.348;9.640;2022-07-29T10:00:09;9.67;;;3.80;;
5819;SDS011;2936;47.348;9.640;2022-07-29T10:02:39;4.33;;;3.93;;
5819;SDS011;2936;47.348;9.640;2022-07-29T10:05:16;5.07;;;3.50;;
5819;SDS011;2936;47.348;9.640;2022-07-29T10:07:44;4.40;;;4.00;;
5819;SDS011;2936;47.348;9.640;2022-07-29T10:10:17;3.77;;;3.47;;
5819;SDS011;2936;47.348;9.640;2022-07-29T10:12:50;3.33;;;3.13;;
5819;SDS011;2936;47.348;9.640;2022-07-29T10:15:18;3.53;;;3.33;;
5819;SDS011;2936;47.348;9.640;2022-07-29T10:17:47;4.07;;;3.77;;
5819;SDS011;2936;47.348;9.640;2022-07-29T10:20:15;4.60;;;4.30;;
5819;SDS011;2936;47.348;9.640;2022-07-29T10:22:42;4.83;;;3.70;;
5819;SDS011;2936;47.348;9.640;2022-07-29T10:25:12;3.83;;;3.53;;
5819;SDS011;2936;47.348;9.640;2022-07-29T10:27:39;3.70;;;3.50;;
5819;SDS011;2936;47.348;9.640;2022-07-29T10:30:09;4.63;;;4.23;;
5819;SDS011;2936;47.348;9.640;2022-07-29T10:32:49;3.67;;;3.30;;
5819;SDS011;2936;47.348;9.640;2022-07-29T10:35:19;3.57;;;3.27;;
5819;SDS011;2936;47.348;9.640;2022-07-29T10:38:04;3.40;;;3.10;;
5819;SDS011;2936;47.348;9.640;2022-07-29T10:40:36;3.40;;;3.20;;
5819;SDS011;2936;47.348;9.640;2022-07-29T10:43:24;4.50;;;3.47;;
5819;SDS011;2936;47.348;9.640;2022-07-29T10:45:56;5.93;;;3.27;;
5819;SDS011;2936;47.348;9.640;2022-07-29T10:48:24;3.50;;;3.30;;
5819;SDS011;2936;47.348;9.640;2022-07-29T10:50:52;3.73;;;3.40;;
5819;SDS011;2936;47.348;9.640;2022-07-29T10:53:20;6.43;;;3.13;;
5819;SDS011;2936;47.348;9.640;2022-07-29T10:55:48;3.63;;;3.43;;
5819;SDS011;2936;47.348;9.640;2022-07-29T10:58:16;3.23;;;2.90;;
5819;SDS011;2936;47.348;9.640;2022-07-29T11:00:44;3.90;;;3.60;;
5819;SDS011;2936;47.348;9.640;2022-07-29T11:05:56;2.87;;;2.77;;
5819;SDS011;2936;47.348;9.640;2022-07-29T11:08:24;3.10;;;2.90;;
5819;SDS011;2936;47.348;9.640;2022-07-29T11:10:52;3.53;;;2.50;;
5819;SDS011;2936;47.348;9.640;2022-07-29T11:16:06;2.73;;;2.53;;
5819;SDS011;2936;47.348;9.640;2022-07-29T11:18:33;2.70;;;2.60;;
5819;SDS011;2936;47.348;9.640;2022-07-29T11:21:02;3.23;;;3.03;;
5819;SDS011;2936;47.348;9.640;2022-07-29T11:23:30;2.53;;;2.33;;
5819;SDS011;2936;47.348;9.640;2022-07-29T11:26:13;2.50;;;2.30;;
5819;SDS011;2936;47.348;9.640;2022-07-29T11:28:49;2.57;;;2.47;;
5819;SDS011;2936;47.348;9.640;2022-07-29T11:31:18;2.07;;;1.97;;
5819;SDS011;2936;47.348;9.640;2022-07-29T11:33:46;9.83;;;2.40;;
5819;SDS011;2936;47.348;9.640;2022-07-29T11:36:15;3.33;;;2.33;;
5819;SDS011;2936;47.348;9.640;2022-07-29T11:38:42;3.47;;;2.83;;
5819;SDS011;2936;47.348;9.640;2022-07-29T11:41:22;2.40;;;2.20;;
5819;SDS011;2936;47.348;9.640;2022-07-29T11:43:50;4.83;;;2.70;;
5819;SDS011;2936;47.348;9.640;2022-07-29T11:46:18;7.00;;;3.10;;
5819;SDS011;2936;47.348;9.640;2022-07-29T11:49:05;2.53;;;2.43;;
5819;SDS011;2936;47.348;9.640;2022-07-29T11:51:35;2.47;;;2.37;;
5819;SDS011;2936;47.348;9.640;2022-07-29T11:54:03;2.77;;;2.57;;
5819;SDS011;2936;47.348;9.640;2022-07-29T11:56:33;2.33;;;2.23;;
5819;SDS011;2936;47.348;9.640;2022-07-29T11:59:04;4.07;;;2.50;;
5819;SDS011;2936;47.348;9.640;2022-07-29T12:01:33;2.73;;;2.53;;
5819;SDS011;2936;47.348;9.640;2022-07-29T12:04:04;2.67;;;2.57;;
5819;SDS011;2936;47.348;9.640;2022-07-29T12:06:32;2.90;;;2.80;;
5819;SDS011;2936;47.348;9.640;2022-07-29T12:09:03;2.60;;;2.47;;
5819;SDS011;2936;47.348;9.640;2022-07-29T12:11:33;3.97;;;2.00;;
5819;SDS011;2936;47.348;9.640;2022-07-29T12:14:01;2.07;;;1.97;;
5819;SDS011;2936;47.348;9.640;2022-07-29T12:16:34;2.70;;;2.60;;
5819;SDS011;2936;47.348;9.640;2022-07-29T12:19:03;2.30;;;2.20;;
5819;SDS011;2936;47.348;9.640;2022-07-29T12:21:42;2.10;;;2.00;;
5819;SDS011;2936;47.348;9.640;2022-07-29T12:24:11;4.33;;;2.20;;
5819;SDS011;2936;47.348;9.640;2022-07-29T12:26:48;1.83;;;1.73;;
5819;SDS011;2936;47.348;9.640;2022-07-29T12:29:16;2.53;;;2.33;;
5819;SDS011;2936;47.348;9.640;2022-07-29T12:31:43;2.20;;;2.00;;
5819;SDS011;2936;47.348;9.640;2022-07-29T12:34:11;2.47;;;2.37;;
5819;SDS011;2936;47.348;9.640;2022-07-29T12:36:39;1.93;;;1.83;;
5819;SDS011;2936;47.348;9.640;2022-07-29T12:39:07;2.43;;;2.33;;
5819;SDS011;2936;47.348;9.640;2022-07-29T12:41:37;2.70;;;1.77;;
5819;SDS011;2936;47.348;9.640;2022-07-29T12:44:04;3.20;;;2.40;;
5819;SDS011;2936;47.348;9.640;2022-07-29T12:46:32;1.93;;;1.67;;
5819;SDS011;2936;47.348;9.640;2022-07-29T12:48:59;2.60;;;2.10;;
5819;SDS011;2936;47.348;9.640;2022-07-29T12:51:30;2.00;;;1.90;;
5819;SDS011;2936;47.348;9.640;2022-07-29T12:54:04;2.50;;;2.40;;
5819;SDS011;2936;47.348;9.640;2022-07-29T12:56:32;2.10;;;2.00;;
5819;SDS011;2936;47.348;9.640;2022-07-29T12:59:01;2.33;;;2.23;;
5819;SDS011;2936;47.348;9.640;2022-07-29T13:01:37;2.37;;;2.27;;
5819;SDS011;2936;47.348;9.640;2022-07-29T13:04:05;2.30;;;2.20;;
5819;SDS011;2936;47.348;9.640;2022-07-29T13:06:34;2.00;;;1.90;;
5819;SDS011;2936;47.348;9.640;2022-07-29T13:09:08;3.07;;;2.53;;
5819;SDS011;2936;47.348;9.640;2022-07-29T13:11:36;2.73;;;2.63;;
5819;SDS011;2936;47.348;9.640;2022-07-29T13:14:07;2.47;;;1.93;;
5819;SDS011;2936;47.348;9.640;2022-07-29T13:16:35;3.30;;;2.17;;
5819;SDS011;2936;47.348;9.640;2022-07-29T13:19:06;1.93;;;1.83;;
5819;SDS011;2936;47.348;9.640;2022-07-29T13:21:34;2.63;;;2.10;;
5819;SDS011;2936;47.348;9.640;2022-07-29T13:24:02;3.03;;;2.40;;
5819;SDS011;2936;47.348;9.640;2022-07-29T13:26:29;2.23;;;1.83;;
5819;SDS011;2936;47.348;9.640;2022-07-29T13:28:56;2.13;;;2.03;;
5819;SDS011;2936;47.348;9.640;2022-07-29T13:31:25;2.40;;;2.30;;
5819;SDS011;2936;47.348;9.640;2022-07-29T13:33:53;2.20;;;2.10;;
5819;SDS011;2936;47.348;9.640;2022-07-29T13:36:21;3.00;;;1.88;;
5819;SDS011;2936;47.348;9.640;2022-07-29T13:38:48;2.10;;;2.00;;
5819;SDS011;2936;47.348;9.640;2022-07-29T13:41:16;3.83;;;2.33;;
5819;SDS011;2936;47.348;9.640;2022-07-29T13:43:43;5.80;;;3.50;;
5819;SDS011;2936;47.348;9.640;2022-07-29T13:46:11;2.23;;;2.13;;
5819;SDS011;2936;47.348;9.640;2022-07-29T13:48:39;2.37;;;2.27;;
5819;SDS011;2936;47.348;9.640;2022-07-29T13:51:07;2.30;;;2.20;;
5819;SDS011;2936;47.348;9.640;2022-07-29T13:53:34;2.43;;;2.23;;
5819;SDS011;2936;47.348;9.640;2022-07-29T13:56:02;3.00;;;2.60;;
5819;SDS011;2936;47.348;9.640;2022-07-29T13:58:31;2.60;;;2.40;;
5819;SDS011;2936;47.348;9.640;2022-07-29T14:00:58;3.67;;;2.67;;
5819;SDS011;2936;47.348;9.640;2022-07-29T14:03:26;2.63;;;2.30;;
5819;SDS011;2936;47.348;9.640;2022-07-29T14:05:55;2.87;;;2.53;;
5819;SDS011;2936;47.348;9.640;2022-07-29T14:08:25;3.43;;;2.10;;
5819;SDS011;2936;47.348;9.640;2022-07-29T14:10:52;2.53;;;2.43;;
5819;SDS011;2936;47.348;9.640;2022-07-29T14:13:22;2.37;;;2.17;;
5819;SDS011;2936;47.348;9.640;2022-07-29T14:15:50;2.40;;;2.30;;
5819;SDS011;2936;47.348;9.640;2022-07-29T14:18:18;2.40;;;2.30;;
5819;SDS011;2936;47.348;9.640;2022-07-29T14:20:47;2.43;;;2.33;;
5819;SDS011;2936;47.348;9.640;2022-07-29T14:23:17;3.40;;;2.20;;
5819;SDS011;2936;47.348;9.640;2022-07-29T14:25:44;5.00;;;2.37;;
5819;SDS011;2936;47.348;9.640;2022-07-29T14:28:11;4.67;;;2.90;;
5819;SDS011;2936;47.348;9.640;2022-07-29T14:30:39;3.07;;;2.87;;
5819;SDS011;2936;47.348;9.640;2022-07-29T14:33:06;3.40;;;3.17;;
5819;SDS011;2936;47.348;9.640;2022-07-29T14:35:34;2.83;;;2.73;;
5819;SDS011;2936;47.348;9.640;2022-07-29T14:38:01;8.13;;;2.93;;
5819;SDS011;2936;47.348;9.640;2022-07-29T14:40:30;15.83;;;3.77;;
5819;SDS011;2936;47.348;9.640;2022-07-29T14:42:57;6.63;;;3.87;;
5819;SDS011;2936;47.348;9.640;2022-07-29T14:45:25;11.60;;;5.47;;
5819;SDS011;2936;47.348;9.640;2022-07-29T14:47:53;10.50;;;5.50;;
5819;SDS011;2936;47.348;9.640;2022-07-29T14:50:20;7.17;;;4.67;;
5819;SDS011;2936;47.348;9.640;2022-07-29T14:52:48;9.50;;;4.53;;
5819;SDS011;2936;47.348;9.640;2022-07-29T14:55:15;7.77;;;4.17;;
5819;SDS011;2936;47.348;9.640;2022-07-29T14:57:44;7.20;;;4.13;;
5819;SDS011;2936;47.348;9.640;2022-07-29T15:00:12;9.03;;;3.63;;
5819;SDS011;2936;47.348;9.640;2022-07-29T15:02:40;6.40;;;3.97;;
5819;SDS011;2936;47.348;9.640;2022-07-29T15:05:07;6.07;;;4.33;;
5819;SDS011;2936;47.348;9.640;2022-07-29T15:07:35;6.10;;;4.80;;
5819;SDS011;2936;47.348;9.640;2022-07-29T15:10:02;14.13;;;4.87;;
5819;SDS011;2936;47.348;9.640;2022-07-29T15:12:30;4.80;;;4.40;;
5819;SDS011;2936;47.348;9.640;2022-07-29T15:14:59;7.00;;;4.97;;
5819;SDS011;2936;47.348;9.640;2022-07-29T15:17:26;5.90;;;5.40;;
5819;SDS011;2936;47.348;9.640;2022-07-29T15:19:53;4.90;;;4.50;;
5819;SDS011;2936;47.348;9.640;2022-07-29T15:22:21;5.30;;;4.80;;
5819;SDS011;2936;47.348;9.640;2022-07-29T15:24:48;5.83;;;4.60;;
5819;SDS011;2936;47.348;9.640;2022-07-29T15:27:16;10.93;;;5.60;;
5819;SDS011;2936;47.348;9.640;2022-07-29T15:29:43;6.03;;;5.40;;
5819;SDS011;2936;47.348;9.640;2022-07-29T15:32:12;5.70;;;5.20;;
5819;SDS011;2936;47.348;9.640;2022-07-29T15:34:40;5.83;;;5.30;;